Terminal Aerodrome Forecast
Issued by NWS Sterling, VA

Current Version | Previous Version | Graphics & Text | Print | Product List | Glossary On
Versions: 1 2 3 4 5 6 7 8 9 10 11 12
430
FTUS41 KLWX 232328
TAFMRB
TAF
KMRB 232328Z 2400/2424 19004KT P6SM BKN040
     FM240900 VRB03KT 4SM BR BKN080
     FM241300 18006KT P6SM SCT130
     FM241900 18010KT P6SM SCT150=

USA.gov is the U.S. government's official web portal to all federal, state and local government web resources and services.